Thursday, November 15, 2018, 1:58 AM GMT
Back to Local

CWFQ, Frelighsburg

Location: , , Canada Lat: 45.05
Local Time: 1:58 AM GMT ( 1:58 GMT) Lon: -72.833
Time Zone: GMT Elev: 498 ft

Show me the last for .
Show Decoded

2018-11-15 01:00 METAR CWFQ 150100Z AUTO 26002KT M11/M15 RMK AO1 SOG 02 1020 SLP350 T11081153 =
2018-11-15 00:00 METAR CWFQ 150000Z AUTO 30004KT M10/M15 RMK AO1 SOG 02 1022 SLP343 T11001153 =
2018-11-14 23:00 METAR CWFQ 142300Z AUTO 34002KT M10/M15 RMK AO1 SOG 02 3029 SLP340 T10971152 =
2018-11-14 22:00 METAR CWFQ 142200Z AUTO 30004KT M10/M15 RMK AO1 SOG 02 1029 SLP329 T10981152 =
2018-11-14 21:00 METAR CWFQ 142100Z AUTO 31005KT M09/M16 RMK AO1 SOG 02 2031 SLP320 T10941155 =
2018-11-14 20:00 METAR CWFQ 142000Z AUTO 29008G16KT M09/M16 RMK AO1 SOG 02 3026 PK WND 27017/1948
                 SLP310 T10931158 =
2018-11-14 19:00 METAR CWFQ 141900Z AUTO 31006KT M09/M16 RMK AO1 SOG 02 3021 PK WND 27018/1829
                 SLP298 T10941156 =
2018-11-14 18:00 METAR CWFQ 141800Z AUTO 30006G15KT M10/M16 RMK AO1 SOG 02 1017 SLP288 T10961157
                 =
2018-11-14 17:00 METAR CWFQ 141700Z AUTO 32008G16KT M10/M17 RMK AO1 SOG 02 3017 PK WND 28020/1640
                 SLP283 T10991173 =
2018-11-14 16:00 METAR CWFQ 141600Z AUTO 33007G16KT M10/M17 RMK AO1 SOG 02 1025 PK WND 34025/1524
                 SLP276 T11011172 =
2018-11-14 15:00 METAR CWFQ 141500Z AUTO 33008G15KT M11/M17 RMK AO1 SOG 02 1032 PK WND 30019/1437
                 SLP270 T11101172 =
2018-11-14 14:00 METAR CWFQ 141400Z AUTO 33008G18KT M11/M16 RMK AO1 SOG 02 3039 PK WND 32018/1304
                 SLP265 T11141163 =
2018-11-14 13:00 METAR CWFQ 141300Z AUTO 33008G19KT M12/M16 RMK AO1 SOG 02 3032 PK WND 33019/1254
                 SLP250 T11161156 =
2018-11-14 12:00 METAR CWFQ 141200Z AUTO 33006KT M11/M15 RMK AO1 SOG 02 2031 SLP236 T11071149 =
2018-11-14 11:00 METAR CWFQ 141100Z AUTO 32005KT M10/M14 RMK AO1 SOG 02 3025 SLP223 T11031144 =
2018-11-14 10:00 METAR CWFQ 141000Z AUTO 31006KT M10/M16 RMK AO1 SOG 02 3020 PK WND 30017/0926
                 SLP215 T11011159 =
2018-11-14 09:00 METAR CWFQ 140900Z AUTO 33004KT M10/M15 RMK AO1 SOG 02 3013 SLP203 T10981149 =
2018-11-14 08:00 METAR CWFQ 140800Z AUTO 30005KT M09/M14 RMK AO1 SOG 02 1010 SLP196 T10941135 =
2018-11-14 07:00 METAR CWFQ 140700Z AUTO 31003KT M09/M14 RMK AO1 SOG 02 2013 SLP194 T10881139 =
2018-11-14 06:00 METAR CWFQ 140600Z AUTO 30006G16KT M08/M14 RMK AO1 SOG 02 1022 PK WND 30017/0545
                 SLP189 T10841139 50002 =
2018-11-14 05:00 METAR CWFQ 140500Z AUTO 28005KT M09/M14 RMK AO1 SOG 02 1030 SLP186 T10861137
                 50002 =
2018-11-14 04:00 METAR CWFQ 140400Z AUTO 29009G17KT M08/M13 RMK AO1 2PAST HR SOG 02 3035 PK WND
                 30020/0316 SLP181 P0001 T10781132 50002 =
2018-11-14 03:00 METAR CWFQ 140300Z AUTO 30006G20KT M07/M12 RMK AO1 SOG 02 1034 PK WND 27020/0256
                 SLP166 T10671124 =
2018-11-14 02:00 METAR CWFQ 140200Z AUTO 30009G21KT M05/M10 RMK AO1 SOG 02 3032 PK WND 29021/0139
                 SLP154 T10521095 =

Support USWX by starting your Amazon purchase here.